Marcos Batista

Scout - Internacional
23 Apr 2028
Sonntag
Verarbeitung

Persönlichkeit

Anpassungsfähigkeit (2) Ehrgeiz (10) Kontroverse (4) Loyalität (13) Druck (4) Professionalität (3) Fairness (3) Temperament (18)

Profil

Trainerstil Demokratisch
Lizenz Kontinentale C
Entschlossenheit 13
Menschenführung 15
Motivation 12
Disziplin 7
Arbeitszufriedenheit
100%
Ermüdung
0%
Rolle Scout
Gehalt 105.4K p/W
Vertrag 14.03.2029

Leistung

Verhalten Gut
Trainingseffektivität
60%
Spielerentwicklung
35%
Verletzungsprävention
50%
Taktische Umsetzung
70%

Letzte Ereignisse

Nahm an einer Scouting-Besprechung teil jetzt
Nahm an einer Scouting-Besprechung teil 7T her
Nahm an einer Scouting-Besprechung teil 7T her
Nahm an einer Scouting-Besprechung teil 7T her
Nahm an einer Scouting-Besprechung teil 14T her
Nahm an einer Scouting-Besprechung teil 14T her
Nahm an einer Scouting-Besprechung teil 14T her
Nahm an einer Scouting-Besprechung teil 21T her

Aktuell beobachtet

249
Spieler Verein Status Fähigkeit Vertrauen Beobachtet Zuletzt beobachtet Letzte Stimme
Alix Vinicius Bragantino Verloren 129 / 117 76% 1 20.12.2027 -
Rodrigo Nestor Bahia Aktiv 129 / 124 40% 1 30.11.2027 Mehr Infos nötig
Allan Saint-Maximin Charlotte Football Club Aktiv 149 / 126 40% 1 30.11.2027 -
Xavier Biscayzacú Defensor Sporting Aktiv 133 / 121 40% 1 30.11.2027 -
Aune Heggebø West Bromwich Albion Aktiv 126 / 123 40% 3 03.06.2027 -
Joe Gelhardt Hull City Aktiv 138 / 144 40% 6 03.06.2027 -
Assane Diao Como Aktiv 146 / 154 40% 2 03.06.2027 -
Max Bird Birmingham Aktiv 136 / 128 40% 2 31.05.2027 -
Manuel Roffo Hajduk Split Aktiv 124 / 130 40% 3 30.05.2027 -
Maduka Okoye Udinese Aktiv 137 / 142 40% 2 30.05.2027 -
Radek Vítek Middlesbrough Aktiv 142 / 152 40% 2 29.05.2027 -
Hidemasa Morita Hull City Aktiv 147 / 128 40% 3 28.05.2027 -
Óscar Mingueza Crystal Palace Aktiv 151 / 159 40% 2 28.05.2027 -
Amadou Onana Aston Villa Aktiv 149 / 153 40% 1 28.05.2027 -
Gonzalo Fulham Aktiv 147 / 139 40% 3 26.05.2027 -
Mohammed Kudus Tottenham Aktiv 156 / 147 40% 1 26.05.2027 -
Manor Solomon West Ham United Aktiv 148 / 149 40% 2 25.05.2027 -
Xavi Simons Tottenham Aktiv 149 / 156 40% 1 25.05.2027 -
Sorba Thomas Stoke City Aktiv 131 / 116 40% 2 24.05.2027 -
Nordi Mukiele Sunderland Aktiv 137 / 134 40% 5 23.05.2027 -
Dara O'Shea Ipswich Town Aktiv 145 / 143 40% 6 23.05.2027 -
Carlos Vicente Birmingham Aktiv 138 / 138 40% 4 23.05.2027 -
Ismaïla Sarr Crystal Palace Aktiv 145 / 147 40% 1 23.05.2027 -
Alex Scott Bournemouth Aktiv 156 / 161 40% 1 23.05.2027 -
Florentino Luís Ipswich Town Aktiv 141 / 138 40% 5 22.05.2027 -
Adrien Truffert Bournemouth Aktiv 141 / 153 40% 2 22.05.2027 -
Adam Wharton Crystal Palace Aktiv 148 / 158 40% 1 22.05.2027 -
Boubacar Kamara Aston Villa Aktiv 174 / 155 40% 3 20.05.2027 -
Pedro Porro Tottenham Aktiv 147 / 148 40% 3 19.05.2027 -
Japhet Tanganga Sheffield United Aktiv 137 / 147 40% 2 19.05.2027 -
Jarrad Branthwaite Everton Aktiv 153 / 164 40% 2 18.05.2027 -
Azor Matusiwa Ipswich Town Aktiv 142 / 131 40% 3 18.05.2027 -
Tino Livramento Newcastle United Aktiv 166 / 173 40% 1 18.05.2027 -
Mile Svilar AS Roma Aktiv 162 / 165 40% 1 18.05.2027 -
Lautaro Martínez Inter Aktiv 180 / 174 40% 2 17.05.2027 Mehr Infos nötig
Kevin Schade Chelsea Aktiv 155 / 144 40% 1 17.05.2027 -
André-Franck Zambo Anguissa Napoli Aktiv 168 / 169 40% 8 15.05.2027 -
Morgan Rogers Chelsea Aktiv 162 / 165 40% 1 15.05.2027 -
Lorenzo Colombo Genoa Aktiv 147 / 151 40% 4 14.05.2027 -
Georginio Rutter Brighton Aktiv 154 / 138 40% 4 12.05.2027 -
Giacomo Raspadori Atalanta Aktiv 157 / 150 40% 3 12.05.2027 -
Tammy Abraham Aston Villa Aktiv 151 / 134 40% 1 12.05.2027 -
James Garner Everton Aktiv 154 / 137 40% 2 10.05.2027 -
Caspar Jander Southampton Aktiv 131 / 128 40% 1 08.05.2027 -
Juanlu Bournemouth Aktiv 150 / 163 40% 1 08.05.2027 -
Eddie Nketiah Crystal Palace Aktiv 139 / 133 40% 1 08.05.2027 -
Jarrod Bowen West Ham United Aktiv 154 / 160 40% 1 07.05.2027 -
Savinho Tottenham Aktiv 148 / 146 40% 3 06.05.2027 -
Mohamed-Ali Cho Hull City Aktiv 141 / 128 40% 3 06.05.2027 -
Jørgen Strand Larsen Brighton Aktiv 143 / 134 40% 2 04.05.2027 -
Kenan Yıldız Juventus Aktiv 172 / 178 40% 1 04.05.2027 -
Nicolas Jackson Aston Villa Aktiv 147 / 150 40% 2 02.05.2027 -
Noni Madueke Arsenal Aktiv 155 / 150 40% 1 02.05.2027 -
Kevin Fulham Aktiv 156 / 155 40% 1 01.05.2027 -
Morgan Gibbs-White Nottingham Forest Aktiv 155 / 145 40% 1 01.05.2027 -
John McGinn Aston Villa Aktiv 149 / 153 40% 4 30.04.2027 -
Ousmane Diomande Nottingham Forest Aktiv 156 / 152 40% 2 29.04.2027 -
Toby Collyer West Bromwich Albion Aktiv 128 / 132 40% 2 29.04.2027 -
Tyler Adams Bournemouth Aktiv 144 / 147 40% 1 29.04.2027 -
João Pedro Chelsea Aktiv 160 / 168 40% 2 27.04.2027 -
Ollie Scarles West Ham United Aktiv 123 / 119 40% 1 26.04.2027 -
Maxence Lacroix Chelsea Aktiv 150 / 141 40% 1 26.04.2027 -
Michael Cooper Sheffield United Aktiv 137 / 115 40% 2 22.04.2027 -
Ivor Pandur Hull City Aktiv 123 / 116 40% 2 22.04.2027 -
Solly March Brighton Aktiv 152 / 142 40% 4 22.04.2027 -
Jack Rudoni Coventry City Aktiv 125 / 137 40% 2 22.04.2027 -
Chemsdine Talbi Sunderland Aktiv 135 / 138 40% 1 22.04.2027 -
Sławomir Abramowicz Jagiellonia Aktiv 129 / 135 40% 3 17.04.2027 -
Max Johnston Derby County Aktiv 120 / 121 40% 3 14.04.2027 -
Nobel Mendy Hull City Aktiv 136 / 126 40% 1 14.04.2027 -
Martin Baturina Como Aktiv 133 / 142 40% 1 13.04.2027 -
Zian Flemming Ipswich Town Aktiv 123 / 135 40% 1 12.04.2027 -
Jason Knight Bristol City Aktiv 129 / 135 40% 4 11.04.2027 -
Domenico Berardi Sassuolo Aktiv 138 / 128 40% 1 11.04.2027 -
Brenden Aaronson Leeds United Aktiv 132 / 149 40% 1 11.04.2027 -
Oliver Skipp Leicester City Aktiv 125 / 135 40% 1 08.04.2027 -
Ethan Galbraith Swansea City Aktiv 128 / 117 40% 2 07.04.2027 -
Tomáš Souček West Ham United Aktiv 143 / 129 40% 2 07.04.2027 -
Yousef Salech Cardiff City Aktiv 134 / 113 40% 2 06.04.2027 -
Harry Wilson Leeds United Aktiv 148 / 131 40% 1 03.04.2027 -
Jacob Greaves Ipswich Town Aktiv 131 / 136 40% 6 02.04.2027 -
Lucas Da Cunha Como Aktiv 147 / 157 40% 1 02.04.2027 -
Luke McNally Bristol City Aktiv 137 / 120 40% 1 02.04.2027 -
Kenny Tete Fulham Aktiv 138 / 155 40% 3 01.04.2027 -
Brooke Norton-Cuffy Hull City Aktiv 142 / 138 40% 2 01.04.2027 -
Toti Wolverhampton Aktiv 139 / 122 40% 2 01.04.2027 -
Yoane Wissa Newcastle United Aktiv 146 / 152 40% 1 01.04.2027 -
Ilyas Ansah Hull City Aktiv 141 / 131 40% 2 31.03.2027 -
Patrick Agyemang Derby County Aktiv 130 / 118 40% 1 31.03.2027 -
Shea Charles Southampton Aktiv 132 / 144 40% 1 30.03.2027 -
Kyle Walker-Peters West Ham United Aktiv 128 / 129 40% 3 27.03.2027 -
Henrique Araújo Casa Pia Aktiv 126 / 107 40% 2 27.03.2027 -
Bernardo Fontes Braga Aktiv 135 / 131 40% 1 27.03.2027 -
Pablo Rosario Porto Aktiv 133 / 139 40% 15 23.03.2027 -
Pepê Porto Aktiv 146 / 146 40% 6 23.03.2027 -
Welington Southampton Aktiv 135 / 119 40% 2 23.03.2027 -
Milan van Ewijk Coventry City Aktiv 133 / 140 40% 1 23.03.2027 -
Leon Goretzka Aston Villa Aktiv 148 / 165 40% 3 21.03.2027 -
Javi Sánchez Arouca Aktiv 123 / 142 40% 2 21.03.2027 -
João Carvalho Estoril Praia Aktiv 137 / 115 40% 2 21.03.2027 -
Roberto Fernández Braga Aktiv 133 / 157 40% 2 20.03.2027 -
Vinícius Lopes Santa Clara Aktiv 123 / 122 40% 2 20.03.2027 -
André Wolverhampton Aktiv 139 / 136 40% 2 18.03.2027 -
Adam Randell Bristol City Aktiv 132 / 121 40% 1 18.03.2027 -
Nuno Santos Sporting CP Aktiv 150 / 141 40% 3 17.03.2027 -
Sorriso Famalicao Aktiv 132 / 145 40% 4 17.03.2027 -
Carlos Forbs Club Brugge Aktiv 131 / 129 40% 3 17.03.2027 -
Fredrik Aursnes Benfica Aktiv 148 / 164 40% 5 14.03.2027 -
William Gomes Porto Aktiv 141 / 141 40% 3 13.03.2027 -
Matthew Targett Hull City Aktiv 128 / 133 40% 1 12.03.2027 -
Zeno Debast Sporting CP Aktiv 141 / 133 40% 7 11.03.2027 -
Harry Clarke Preston Aktiv 137 / 139 40% 1 11.03.2027 -
Gustavo Silva Vitoria Guimaraes Aktiv 127 / 106 40% 3 10.03.2027 -
João Palhinha Benfica Aktiv 150 / 142 40% 13 08.03.2027 -
Eduardo Quaresma Sporting CP Aktiv 138 / 135 40% 7 08.03.2027 -
Tomás Araújo Benfica Aktiv 144 / 131 40% 8 07.03.2027 -
Sikou Niakaté Braga Aktiv 130 / 122 40% 4 07.03.2027 -
Marcelo Allende Mamelodi Sundowns Aktiv 125 / 128 40% 4 07.03.2027 -
Gabriel Silva Braga Aktiv 123 / 124 40% 2 06.03.2027 -
Gianluca Prestianni Benfica Aktiv 128 / 128 40% 5 04.03.2027 -
Enzo Barrenechea Benfica Aktiv 140 / 149 40% 11 03.03.2027 -
Hwang In-Beom Porto Aktiv 138 / 128 40% 11 03.03.2027 -
Lassina Traoré Shakhtar Aktiv 127 / 112 40% 2 01.03.2027 -
Adriel Torreense Aktiv 119 / 120 40% 2 27.02.2027 -
Alireza Yazdani Padideh Aktiv 125 / 104 40% 1 27.02.2027 -
Oh Hyeon-Gyu Besiktas Aktiv 127 / 112 40% 1 27.02.2027 -
Jackson Muleka Konyaspor Aktiv 127 / 140 40% 1 24.02.2027 -
Yanis Begraoui Estoril Praia Aktiv 125 / 142 40% 1 23.02.2027 -
Robin Roefs Sunderland Aktiv 142 / 160 40% 3 22.02.2027 -
Samuel Soares Benfica Aktiv 122 / 138 40% 2 22.02.2027 -
Elia Caprile Cagliari Aktiv 143 / 136 40% 1 22.02.2027 -
Mads Hermansen West Ham United Aktiv 130 / 134 40% 2 21.02.2027 -
Bilal Bayazıt Kayserispor Aktiv 128 / 138 40% 2 21.02.2027 -
José Manuel López Palmeiras Aktiv 143 / 140 40% 1 19.02.2027 -
Nicolò Tresoldi Club Brugge Aktiv 137 / 120 40% 1 18.02.2027 -
Dawda Camara Alverca Aktiv 116 / 106 40% 1 17.02.2027 -
Figueiredo Alverca Aktiv 119 / 133 40% 1 16.02.2027 -
Mario Dorgeles Braga Aktiv 128 / 142 40% 3 14.02.2027 -
Efrain Dos Santos Veracruz Aktiv 127 / 150 40% 1 14.02.2027 -
Jesús Gallardo Toluca Aktiv 145 / 136 40% 2 11.02.2027 -
Carlos Álvarez Club America Aktiv 150 / 153 40% 5 10.02.2027 -
Andrew Robertson Tottenham Aktiv 152 / 141 40% 2 10.02.2027 -
Luís Esteves Atlas Aktiv 120 / 111 40% 1 10.02.2027 -
Joaquim Tigres Aktiv 130 / 137 40% 1 10.02.2027 -
Jan Bednarek Porto Aktiv 150 / 144 40% 4 09.02.2027 -
Mathias De Amorim Famalicao Aktiv 124 / 144 40% 2 07.02.2027 -
Diego Lainez Tigres Aktiv 139 / 117 40% 1 07.02.2027 -
Alfonso Trezza Arouca Aktiv 114 / 127 40% 1 07.02.2027 -
Caio Alexandre Bahia Aktiv 143 / 146 40% 10 03.02.2027 -
Andreas Jungdal Westerlo Aktiv 130 / 129 40% 1 30.01.2027 -
Finn Azaz Southampton Aktiv 119 / 140 40% 2 29.01.2027 -
Grégoire Coudert Burnley Aktiv 134 / 126 40% 4 27.01.2027 -
Álex Berenguer Lokomotiv Moscow Aktiv 150 / 138 40% 3 26.01.2027 -
Víctor Guzmán Monterrey Aktiv 135 / 121 40% 1 23.01.2027 -
Yehvann Diouf OGC Nice Aktiv 138 / 134 40% 1 22.01.2027 -
Agustín Palavecino Cruz Azul Aktiv 130 / 130 40% 3 21.01.2027 -
Memphis Depay Corinthians Aktiv 156 / 153 40% 1 21.01.2027 -
Rafik Guitane Estoril Praia Aktiv 121 / 126 40% 1 15.01.2027 -
Brais Méndez RC Lens Aktiv 156 / 132 40% 3 12.01.2027 -
Geny Sporting CP Aktiv 135 / 127 40% 2 11.01.2027 -
Sidney Lima Santa Clara Aktiv 136 / 129 40% 2 11.01.2027 -
Domingos Duarte São Paulo Aktiv 138 / 129 40% 1 09.01.2027 -
Joseph Leclercq Tottenham Aktiv 156 / 154 40% 1 08.01.2027 -
Osame Sahraoui LOSC Lille Aktiv 143 / 134 40% 1 05.01.2027 -
Brent Gabriel Zulte Waregem Aktiv 117 / 114 40% 1 04.01.2027 -
Hugo Souza Corinthians Aktiv 132 / 144 40% 3 01.01.2027 -
Matheuzinho Corinthians Aktiv 130 / 138 40% 1 29.12.2026 -
Cezary Miszta Rio Ave Aktiv 124 / 128 40% 1 27.12.2026 -
Gabriel Brazão Santos Aktiv 139 / 125 40% 1 25.12.2026 -
Reinildo Sunderland Aktiv 144 / 153 40% 1 23.12.2026 -
Lucas Piton Vasco da Gama Aktiv 125 / 131 40% 1 23.12.2026 -
Léo Ortiz Flamengo Aktiv 134 / 137 40% 4 15.12.2026 -
Pau Torres Aston Villa Aktiv 153 / 135 40% 1 15.12.2026 -
Jean-Baptiste Gorby Braga Aktiv 143 / 124 40% 2 14.12.2026 -
Gérson Cruzeiro Aktiv 136 / 128 40% 6 01.12.2026 -
Fabrício Bruno Cruzeiro Aktiv 141 / 127 40% 6 27.11.2026 -
Nehuén Pérez Porto Aktiv 152 / 144 40% 4 25.11.2026 -
Cristian Medina Botafogo Aktiv 137 / 126 40% 2 25.11.2026 -
Habib Diarra Sunderland Aktiv 129 / 146 40% 1 24.11.2026 -
Pedrinho Shakhtar Aktiv 127 / 149 40% 1 23.11.2026 -
Soma Anzai FC Tokyo Aktiv 123 / 115 40% 3 20.11.2026 -
Nathan Collins Brentford Aktiv 134 / 137 40% 3 19.11.2026 -
Tijjani Reijnders Al-Qadisiyah Aktiv 160 / 143 40% 1 19.11.2026 -
Raúl Rangel Braga Aktiv 139 / 138 40% 1 18.11.2026 -
Ianis Stoica Estrela da Amadora Aktiv 112 / 118 40% 2 15.11.2026 -
Luciano Juba Bahia Aktiv 132 / 132 40% 3 15.11.2026 -
Heorhii Sudakov Benfica Aktiv 141 / 146 40% 7 14.11.2026 -
Galeno Al-Ahli Aktiv 138 / 135 40% 1 13.11.2026 -
Bright Arrey-Mbi Braga Aktiv 143 / 118 40% 1 11.11.2026 -
Luis Quintero Torreense Aktiv 126 / 108 40% 1 10.11.2026 -
Lee Hyun-Ju Arouca Aktiv 130 / 135 40% 1 09.11.2026 -
Álvaro Martínez Moreirense Aktiv 120 / 101 40% 1 09.11.2026 -
Tony Strata Vitoria Guimaraes Aktiv 127 / 124 40% 1 09.11.2026 -
Nathan Trott Cardiff City Aktiv 129 / 137 40% 1 08.11.2026 -
Brenner Santa Clara Aktiv 100 / 113 40% 1 03.11.2026 -
Alexander Bah Benfica Aktiv 132 / 150 40% 1 01.11.2026 -
Matheus Pereira Cruzeiro Aktiv 134 / 147 40% 1 01.11.2026 -
Renan Lodi Atlético Mineiro Aktiv 130 / 142 40% 2 30.10.2026 -
Carlos Rodríguez Cruz Azul Aktiv 128 / 128 40% 1 30.10.2026 -
Luis Romo Guadalajara Aktiv 134 / 153 40% 2 27.10.2026 -
Samuel Dahl Benfica Aktiv 126 / 150 40% 6 27.10.2026 -
Ramón Juárez Club America Aktiv 143 / 146 40% 1 25.10.2026 -
Lucas Paquetá Flamengo Aktiv 141 / 135 40% 1 23.10.2026 -
Santiago Ramos Mingo Bahia Aktiv 136 / 122 40% 1 23.10.2026 -
Alexis Vega Feyenoord Aktiv 141 / 157 40% 2 22.10.2026 -
Benjamin Kanurić Grodig Aktiv 115 / 97 40% 1 22.10.2026 -
Martín Tejón Maritimo Aktiv 122 / 125 40% 1 22.10.2026 -
Mateja Stjepanović Moreirense Aktiv 109 / 110 40% 1 22.10.2026 -
Erik Lira Cruz Azul Aktiv 139 / 125 40% 1 20.10.2026 -
Alberto Costa Porto Aktiv 139 / 126 40% 6 18.10.2026 -
Gustaf Lagerbielke Braga Aktiv 127 / 137 40% 2 18.10.2026 -
Rodrigo Garro Corinthians Aktiv 143 / 132 40% 2 14.10.2026 -
Victor Froholdt Porto Aktiv 148 / 166 40% 4 13.10.2026 -
Daniel Muñoz Nottingham Forest Aktiv 150 / 134 40% 1 10.10.2026 -
Patrick Sequeira Casa Pia Aktiv 128 / 118 40% 1 04.10.2026 -
Alan Varela Porto Aktiv 152 / 145 40% 4 03.10.2026 -
Rico Henry River Plate Aktiv 147 / 148 40% 2 03.10.2026 -
Víctor Gómez Braga Aktiv 127 / 122 40% 4 02.10.2026 -
Brian Gutiérrez Guadalajara Aktiv 131 / 113 40% 1 30.09.2026 -
Beni Mukendi Vitoria Guimaraes Aktiv 133 / 127 40% 1 30.09.2026 -
Lisandro Martínez Ajax Aktiv 145 / 169 40% 1 30.09.2026 -
Arthur Flamengo Aktiv 133 / 132 40% 1 30.09.2026 -
Elliot Anderson Manchester City Aktiv 140 / 167 40% 1 29.09.2026 -
Manu Pozo Torreense Aktiv 111 / 121 40% 1 27.09.2026 -
Dodi Lukébakio Benfica Aktiv 145 / 133 40% 3 25.09.2026 -
Guilherme Arana Fluminense Aktiv 129 / 147 40% 4 25.09.2026 -
Andreas Schjelderup Benfica Aktiv 129 / 127 40% 3 24.09.2026 -
Vitinho Botafogo Aktiv 127 / 140 40% 1 22.09.2026 -
Xaver Schlager Nottingham Forest Aktiv 159 / 153 40% 1 22.09.2026 -
Brandon Aguilera Rio Ave Aktiv 125 / 118 40% 2 18.09.2026 -
Danilo Botafogo Aktiv 137 / 139 40% 1 18.09.2026 -
Matías Lacava Vizela Aktiv 113 / 117 40% 1 18.09.2026 -
Espen van Ee Arouca Aktiv 113 / 103 40% 2 16.09.2026 -
William Cruzeiro Aktiv 131 / 128 40% 1 13.09.2026 -
Andreas Pereira Palmeiras Aktiv 146 / 143 40% 1 13.09.2026 -
Roman Celentano FC Cincinnati Aktiv 131 / 108 40% 1 13.09.2026 -
Francisco Moura Porto Aktiv 126 / 152 40% 3 07.09.2026 -
Jhon Arias Palmeiras Aktiv 136 / 137 40% 1 07.09.2026 -
Andrés Gómez Vasco da Gama Aktiv 135 / 125 40% 1 05.09.2026 -
Matheus Dias Nacional Aktiv 114 / 138 40% 1 04.09.2026 -
Pau Víctor Braga Aktiv 145 / 126 40% 1 22.08.2026 -
Francisco Domingues Moreirense Aktiv 113 / 135 40% 1 22.08.2026 -
Martinelli Fluminense Aktiv 135 / 132 40% 1 18.08.2026 -
Marcos Antonio Sport Recife Aktiv 142 / 132 40% 2 15.08.2026 -
Iván Fresneda Sporting CP Aktiv 144 / 142 40% 2 15.08.2026 -
Luis Sinisterra Cruzeiro Aktiv 134 / 144 40% 2 14.08.2026 -
Mathias Jensen Brentford Aktiv 135 / 143 40% 1 06.08.2026 -
Kobbie Mainoo Manchester United Aktiv 154 / 168 40% 1 01.08.2026 -
Leandro Barreiro Benfica Aktiv 132 / 154 40% 1 01.08.2026 -